sensor_id;sensor_type;location;lat;lon;timestamp;P1;durP1;ratioP1;P2;durP2;ratioP2
43248;SDS011;29216;51.248;6.808;2023-01-19T00:02:22;10.68;;;7.15;;
43248;SDS011;29216;51.248;6.808;2023-01-19T00:04:48;11.03;;;6.60;;
43248;SDS011;29216;51.248;6.808;2023-01-19T00:07:16;11.82;;;7.38;;
43248;SDS011;29216;51.248;6.808;2023-01-19T00:09:42;11.15;;;7.18;;
43248;SDS011;29216;51.248;6.808;2023-01-19T00:12:08;13.35;;;7.68;;
43248;SDS011;29216;51.248;6.808;2023-01-19T00:14:33;9.57;;;6.70;;
43248;SDS011;29216;51.248;6.808;2023-01-19T00:16:59;9.20;;;6.77;;
43248;SDS011;29216;51.248;6.808;2023-01-19T00:19:26;9.80;;;7.35;;
43248;SDS011;29216;51.248;6.808;2023-01-19T00:21:52;10.20;;;6.85;;
43248;SDS011;29216;51.248;6.808;2023-01-19T00:24:18;12.57;;;7.07;;
43248;SDS011;29216;51.248;6.808;2023-01-19T00:26:44;9.70;;;7.43;;
43248;SDS011;29216;51.248;6.808;2023-01-19T00:29:10;10.32;;;6.80;;
43248;SDS011;29216;51.248;6.808;2023-01-19T00:31:36;9.98;;;6.78;;
43248;SDS011;29216;51.248;6.808;2023-01-19T00:34:02;10.80;;;7.28;;
43248;SDS011;29216;51.248;6.808;2023-01-19T00:36:29;11.38;;;7.25;;
43248;SDS011;29216;51.248;6.808;2023-01-19T00:38:54;11.15;;;6.70;;
43248;SDS011;29216;51.248;6.808;2023-01-19T00:41:20;11.73;;;7.30;;
43248;SDS011;29216;51.248;6.808;2023-01-19T00:44:06;11.07;;;7.63;;
43248;SDS011;29216;51.248;6.808;2023-01-19T00:46:32;10.13;;;7.20;;
43248;SDS011;29216;51.248;6.808;2023-01-19T00:48:57;11.75;;;7.25;;
43248;SDS011;29216;51.248;6.808;2023-01-19T00:51:23;10.70;;;7.65;;
43248;SDS011;29216;51.248;6.808;2023-01-19T00:53:49;9.13;;;6.53;;
43248;SDS011;29216;51.248;6.808;2023-01-19T00:56:15;11.82;;;8.02;;
43248;SDS011;29216;51.248;6.808;2023-01-19T00:58:41;10.40;;;6.95;;
43248;SDS011;29216;51.248;6.808;2023-01-19T01:01:09;11.75;;;7.38;;
43248;SDS011;29216;51.248;6.808;2023-01-19T01:03:34;12.15;;;7.18;;
43248;SDS011;29216;51.248;6.808;2023-01-19T01:06:00;12.90;;;7.07;;
43248;SDS011;29216;51.248;6.808;2023-01-19T01:08:27;14.40;;;7.15;;
43248;SDS011;29216;51.248;6.808;2023-01-19T01:10:56;10.07;;;6.97;;
43248;SDS011;29216;51.248;6.808;2023-01-19T01:13:22;12.85;;;7.35;;
43248;SDS011;29216;51.248;6.808;2023-01-19T01:15:51;13.02;;;7.13;;
43248;SDS011;29216;51.248;6.808;2023-01-19T01:18:17;10.50;;;6.32;;
43248;SDS011;29216;51.248;6.808;2023-01-19T01:20:43;12.50;;;7.07;;
43248;SDS011;29216;51.248;6.808;2023-01-19T01:23:09;8.73;;;6.50;;
43248;SDS011;29216;51.248;6.808;2023-01-19T01:25:34;8.18;;;6.80;;
43248;SDS011;29216;51.248;6.808;2023-01-19T01:28:02;11.32;;;6.68;;
43248;SDS011;29216;51.248;6.808;2023-01-19T01:30:33;10.82;;;6.82;;
43248;SDS011;29216;51.248;6.808;2023-01-19T01:33:00;11.95;;;7.43;;
43248;SDS011;29216;51.248;6.808;2023-01-19T01:35:25;12.48;;;8.43;;
43248;SDS011;29216;51.248;6.808;2023-01-19T01:37:51;13.18;;;6.70;;
43248;SDS011;29216;51.248;6.808;2023-01-19T01:40:17;9.07;;;6.50;;
43248;SDS011;29216;51.248;6.808;2023-01-19T01:42:43;10.98;;;6.32;;
43248;SDS011;29216;51.248;6.808;2023-01-19T01:47:57;10.23;;;6.80;;
43248;SDS011;29216;51.248;6.808;2023-01-19T01:50:33;10.50;;;6.57;;
43248;SDS011;29216;51.248;6.808;2023-01-19T01:53:04;8.82;;;6.82;;
43248;SDS011;29216;51.248;6.808;2023-01-19T01:55:39;11.50;;;7.20;;
43248;SDS011;29216;51.248;6.808;2023-01-19T01:58:07;10.27;;;7.07;;
43248;SDS011;29216;51.248;6.808;2023-01-19T02:00:34;9.60;;;6.80;;
43248;SDS011;29216;51.248;6.808;2023-01-19T02:03:20;13.20;;;7.88;;
43248;SDS011;29216;51.248;6.808;2023-01-19T02:05:47;11.23;;;7.43;;
43248;SDS011;29216;51.248;6.808;2023-01-19T02:11:06;11.15;;;7.20;;
43248;SDS011;29216;51.248;6.808;2023-01-19T02:13:51;10.80;;;6.68;;
43248;SDS011;29216;51.248;6.808;2023-01-19T02:16:17;11.30;;;7.07;;
43248;SDS011;29216;51.248;6.808;2023-01-19T02:18:43;13.13;;;7.03;;
43248;SDS011;29216;51.248;6.808;2023-01-19T02:21:27;11.13;;;7.07;;
43248;SDS011;29216;51.248;6.808;2023-01-19T02:23:59;10.27;;;6.93;;
43248;SDS011;29216;51.248;6.808;2023-01-19T02:26:32;11.52;;;6.40;;
43248;SDS011;29216;51.248;6.808;2023-01-19T02:29:05;12.63;;;7.43;;
43248;SDS011;29216;51.248;6.808;2023-01-19T02:31:31;17.23;;;7.00;;
43248;SDS011;29216;51.248;6.808;2023-01-19T02:33:58;13.25;;;6.70;;
43248;SDS011;29216;51.248;6.808;2023-01-19T02:36:27;9.10;;;6.50;;
43248;SDS011;29216;51.248;6.808;2023-01-19T02:38:59;9.90;;;6.38;;
43248;SDS011;29216;51.248;6.808;2023-01-19T02:41:27;13.75;;;8.02;;
43248;SDS011;29216;51.248;6.808;2023-01-19T02:43:56;11.88;;;6.53;;
43248;SDS011;29216;51.248;6.808;2023-01-19T02:46:23;10.60;;;6.75;;
43248;SDS011;29216;51.248;6.808;2023-01-19T02:48:49;10.88;;;6.95;;
43248;SDS011;29216;51.248;6.808;2023-01-19T02:51:24;9.85;;;7.40;;
43248;SDS011;29216;51.248;6.808;2023-01-19T02:56:37;11.88;;;6.97;;
43248;SDS011;29216;51.248;6.808;2023-01-19T03:12:23;10.83;;;7.30;;
43248;SDS011;29216;51.248;6.808;2023-01-19T03:15:22;13.20;;;6.53;;
43248;SDS011;29216;51.248;6.808;2023-01-19T03:17:52;11.37;;;6.97;;
43248;SDS011;29216;51.248;6.808;2023-01-19T03:20:21;12.37;;;7.20;;
43248;SDS011;29216;51.248;6.808;2023-01-19T03:22:50;10.60;;;7.17;;
43248;SDS011;29216;51.248;6.808;2023-01-19T03:25:24;8.07;;;6.43;;
43248;SDS011;29216;51.248;6.808;2023-01-19T03:27:51;20.57;;;7.20;;
43248;SDS011;29216;51.248;6.808;2023-01-19T03:30:25;11.67;;;6.77;;
43248;SDS011;29216;51.248;6.808;2023-01-19T03:32:55;10.53;;;7.53;;
43248;SDS011;29216;51.248;6.808;2023-01-19T03:35:28;11.63;;;6.45;;
43248;SDS011;29216;51.248;6.808;2023-01-19T03:37:56;11.43;;;6.87;;
43248;SDS011;29216;51.248;6.808;2023-01-19T03:40:28;13.43;;;7.07;;
43248;SDS011;29216;51.248;6.808;2023-01-19T03:42:56;11.37;;;6.23;;
43248;SDS011;29216;51.248;6.808;2023-01-19T03:45:23;11.10;;;6.13;;
43248;SDS011;29216;51.248;6.808;2023-01-19T03:47:49;10.63;;;6.28;;
43248;SDS011;29216;51.248;6.808;2023-01-19T03:50:33;9.52;;;5.85;;
43248;SDS011;29216;51.248;6.808;2023-01-19T03:55:32;14.77;;;6.43;;
43248;SDS011;29216;51.248;6.808;2023-01-19T03:57:59;10.35;;;6.13;;
43248;SDS011;29216;51.248;6.808;2023-01-19T04:00:24;9.32;;;6.03;;
43248;SDS011;29216;51.248;6.808;2023-01-19T04:02:50;12.27;;;6.00;;
43248;SDS011;29216;51.248;6.808;2023-01-19T04:05:16;13.60;;;5.72;;
43248;SDS011;29216;51.248;6.808;2023-01-19T04:07:41;10.55;;;6.15;;
43248;SDS011;29216;51.248;6.808;2023-01-19T04:10:07;9.60;;;5.80;;
43248;SDS011;29216;51.248;6.808;2023-01-19T04:12:36;11.32;;;6.25;;
43248;SDS011;29216;51.248;6.808;2023-01-19T04:15:04;9.82;;;5.65;;
43248;SDS011;29216;51.248;6.808;2023-01-19T04:17:30;10.98;;;5.82;;
43248;SDS011;29216;51.248;6.808;2023-01-19T04:19:56;8.20;;;6.03;;
43248;SDS011;29216;51.248;6.808;2023-01-19T04:22:21;10.65;;;6.28;;
43248;SDS011;29216;51.248;6.808;2023-01-19T04:24:47;10.02;;;6.60;;
43248;SDS011;29216;51.248;6.808;2023-01-19T04:27:13;9.88;;;6.63;;
43248;SDS011;29216;51.248;6.808;2023-01-19T04:29:40;11.93;;;7.00;;
43248;SDS011;29216;51.248;6.808;2023-01-19T04:32:06;11.40;;;6.65;;
43248;SDS011;29216;51.248;6.808;2023-01-19T04:34:32;13.73;;;7.13;;
43248;SDS011;29216;51.248;6.808;2023-01-19T04:36:58;15.07;;;7.18;;
43248;SDS011;29216;51.248;6.808;2023-01-19T04:39:23;15.75;;;7.22;;
43248;SDS011;29216;51.248;6.808;2023-01-19T04:41:49;13.90;;;7.10;;
43248;SDS011;29216;51.248;6.808;2023-01-19T04:44:15;13.82;;;6.57;;
43248;SDS011;29216;51.248;6.808;2023-01-19T04:46:41;11.88;;;7.50;;
43248;SDS011;29216;51.248;6.808;2023-01-19T04:49:07;12.35;;;6.85;;
43248;SDS011;29216;51.248;6.808;2023-01-19T04:51:33;13.48;;;6.93;;
43248;SDS011;29216;51.248;6.808;2023-01-19T04:53:59;12.68;;;7.68;;
43248;SDS011;29216;51.248;6.808;2023-01-19T04:56:25;13.70;;;7.82;;
43248;SDS011;29216;51.248;6.808;2023-01-19T04:58:51;15.15;;;7.78;;
43248;SDS011;29216;51.248;6.808;2023-01-19T05:01:17;12.27;;;7.73;;
43248;SDS011;29216;51.248;6.808;2023-01-19T05:03:43;14.60;;;8.20;;
43248;SDS011;29216;51.248;6.808;2023-01-19T05:06:08;14.57;;;7.90;;
43248;SDS011;29216;51.248;6.808;2023-01-19T05:08:34;14.57;;;8.30;;
43248;SDS011;29216;51.248;6.808;2023-01-19T05:11:00;15.13;;;8.15;;
43248;SDS011;29216;51.248;6.808;2023-01-19T05:13:25;16.53;;;8.63;;
43248;SDS011;29216;51.248;6.808;2023-01-19T05:15:51;13.60;;;7.87;;
43248;SDS011;29216;51.248;6.808;2023-01-19T05:18:17;15.50;;;8.97;;
43248;SDS011;29216;51.248;6.808;2023-01-19T05:20:43;15.27;;;9.30;;
43248;SDS011;29216;51.248;6.808;2023-01-19T05:23:08;15.37;;;9.07;;
43248;SDS011;29216;51.248;6.808;2023-01-19T05:25:34;16.73;;;10.17;;
43248;SDS011;29216;51.248;6.808;2023-01-19T05:28:00;17.13;;;9.40;;
43248;SDS011;29216;51.248;6.808;2023-01-19T05:30:27;20.63;;;9.67;;
43248;SDS011;29216;51.248;6.808;2023-01-19T05:32:52;14.80;;;9.63;;
43248;SDS011;29216;51.248;6.808;2023-01-19T05:35:18;18.53;;;10.53;;
43248;SDS011;29216;51.248;6.808;2023-01-19T05:37:44;15.43;;;10.17;;
43248;SDS011;29216;51.248;6.808;2023-01-19T05:40:09;19.77;;;11.63;;
43248;SDS011;29216;51.248;6.808;2023-01-19T05:42:35;18.07;;;11.00;;
43248;SDS011;29216;51.248;6.808;2023-01-19T05:45:01;20.85;;;11.13;;
43248;SDS011;29216;51.248;6.808;2023-01-19T05:47:28;18.38;;;11.00;;
43248;SDS011;29216;51.248;6.808;2023-01-19T05:49:54;17.93;;;11.17;;
43248;SDS011;29216;51.248;6.808;2023-01-19T05:52:19;17.87;;;11.10;;
43248;SDS011;29216;51.248;6.808;2023-01-19T05:54:46;20.37;;;11.53;;
43248;SDS011;29216;51.248;6.808;2023-01-19T05:57:12;18.03;;;11.10;;
43248;SDS011;29216;51.248;6.808;2023-01-19T05:59:38;19.17;;;10.87;;
43248;SDS011;29216;51.248;6.808;2023-01-19T06:02:04;17.70;;;11.67;;
43248;SDS011;29216;51.248;6.808;2023-01-19T06:04:30;14.80;;;10.33;;
43248;SDS011;29216;51.248;6.808;2023-01-19T06:06:56;14.40;;;9.20;;
43248;SDS011;29216;51.248;6.808;2023-01-19T06:09:22;15.90;;;8.87;;
43248;SDS011;29216;51.248;6.808;2023-01-19T06:11:47;14.73;;;9.03;;
43248;SDS011;29216;51.248;6.808;2023-01-19T06:14:13;14.40;;;8.60;;
43248;SDS011;29216;51.248;6.808;2023-01-19T06:16:39;13.60;;;9.13;;
43248;SDS011;29216;51.248;6.808;2023-01-19T06:19:05;14.63;;;8.33;;
43248;SDS011;29216;51.248;6.808;2023-01-19T06:21:31;14.33;;;8.43;;
43248;SDS011;29216;51.248;6.808;2023-01-19T06:23:57;12.73;;;7.73;;
43248;SDS011;29216;51.248;6.808;2023-01-19T06:26:23;10.87;;;7.97;;
43248;SDS011;29216;51.248;6.808;2023-01-19T06:28:50;12.77;;;8.23;;
43248;SDS011;29216;51.248;6.808;2023-01-19T06:31:16;12.70;;;8.37;;
43248;SDS011;29216;51.248;6.808;2023-01-19T06:33:42;11.60;;;7.53;;
43248;SDS011;29216;51.248;6.808;2023-01-19T06:36:08;9.87;;;7.13;;
43248;SDS011;29216;51.248;6.808;2023-01-19T06:38:34;11.00;;;7.03;;
43248;SDS011;29216;51.248;6.808;2023-01-19T06:40:59;9.37;;;6.57;;
43248;SDS011;29216;51.248;6.808;2023-01-19T06:43:29;10.80;;;7.50;;
43248;SDS011;29216;51.248;6.808;2023-01-19T06:45:55;11.90;;;7.43;;
43248;SDS011;29216;51.248;6.808;2023-01-19T06:48:21;13.27;;;7.37;;
43248;SDS011;29216;51.248;6.808;2023-01-19T06:50:48;10.03;;;7.20;;
43248;SDS011;29216;51.248;6.808;2023-01-19T06:53:14;11.70;;;7.47;;
43248;SDS011;29216;51.248;6.808;2023-01-19T06:55:43;9.90;;;7.03;;
43248;SDS011;29216;51.248;6.808;2023-01-19T06:58:09;9.98;;;7.10;;
43248;SDS011;29216;51.248;6.808;2023-01-19T07:00:35;11.73;;;7.37;;
43248;SDS011;29216;51.248;6.808;2023-01-19T07:03:01;11.47;;;7.57;;
43248;SDS011;29216;51.248;6.808;2023-01-19T07:05:30;11.50;;;8.00;;
43248;SDS011;29216;51.248;6.808;2023-01-19T07:07:56;11.60;;;7.97;;
43248;SDS011;29216;51.248;6.808;2023-01-19T07:10:21;15.47;;;8.37;;
43248;SDS011;29216;51.248;6.808;2023-01-19T07:12:48;14.00;;;8.33;;
43248;SDS011;29216;51.248;6.808;2023-01-19T07:15:14;14.53;;;9.03;;
43248;SDS011;29216;51.248;6.808;2023-01-19T07:17:41;11.60;;;8.53;;
43248;SDS011;29216;51.248;6.808;2023-01-19T07:20:08;17.80;;;12.15;;
43248;SDS011;29216;51.248;6.808;2023-01-19T07:22:36;20.80;;;12.90;;
43248;SDS011;29216;51.248;6.808;2023-01-19T07:25:03;22.73;;;14.00;;
43248;SDS011;29216;51.248;6.808;2023-01-19T07:27:29;22.60;;;14.07;;
43248;SDS011;29216;51.248;6.808;2023-01-19T07:29:55;20.20;;;13.02;;
43248;SDS011;29216;51.248;6.808;2023-01-19T07:32:21;19.73;;;12.20;;
43248;SDS011;29216;51.248;6.808;2023-01-19T07:34:46;22.20;;;13.85;;
43248;SDS011;29216;51.248;6.808;2023-01-19T07:37:12;23.10;;;14.13;;
43248;SDS011;29216;51.248;6.808;2023-01-19T07:39:38;21.08;;;12.95;;
43248;SDS011;29216;51.248;6.808;2023-01-19T07:42:03;19.52;;;12.13;;
43248;SDS011;29216;51.248;6.808;2023-01-19T07:44:29;19.80;;;12.15;;
43248;SDS011;29216;51.248;6.808;2023-01-19T07:46:55;17.50;;;11.32;;
43248;SDS011;29216;51.248;6.808;2023-01-19T07:49:20;17.60;;;10.18;;
43248;SDS011;29216;51.248;6.808;2023-01-19T07:51:46;17.63;;;10.63;;
43248;SDS011;29216;51.248;6.808;2023-01-19T07:54:12;15.13;;;9.73;;
43248;SDS011;29216;51.248;6.808;2023-01-19T07:56:38;16.90;;;9.37;;
43248;SDS011;29216;51.248;6.808;2023-01-19T07:59:03;13.90;;;9.05;;
43248;SDS011;29216;51.248;6.808;2023-01-19T08:01:31;14.05;;;9.20;;
43248;SDS011;29216;51.248;6.808;2023-01-19T08:03:57;15.83;;;10.10;;
43248;SDS011;29216;51.248;6.808;2023-01-19T08:06:23;15.30;;;10.05;;
43248;SDS011;29216;51.248;6.808;2023-01-19T08:08:53;19.97;;;9.37;;
43248;SDS011;29216;51.248;6.808;2023-01-19T08:11:19;14.57;;;9.80;;
43248;SDS011;29216;51.248;6.808;2023-01-19T08:13:45;16.65;;;8.98;;
43248;SDS011;29216;51.248;6.808;2023-01-19T08:16:11;13.13;;;9.40;;
43248;SDS011;29216;51.248;6.808;2023-01-19T08:18:36;12.40;;;8.80;;
43248;SDS011;29216;51.248;6.808;2023-01-19T08:21:02;16.95;;;9.90;;
43248;SDS011;29216;51.248;6.808;2023-01-19T08:23:28;15.50;;;10.13;;
43248;SDS011;29216;51.248;6.808;2023-01-19T08:25:54;14.32;;;9.63;;
43248;SDS011;29216;51.248;6.808;2023-01-19T08:28:20;15.75;;;9.57;;
43248;SDS011;29216;51.248;6.808;2023-01-19T08:30:46;13.18;;;9.10;;
43248;SDS011;29216;51.248;6.808;2023-01-19T08:33:18;13.03;;;9.13;;
43248;SDS011;29216;51.248;6.808;2023-01-19T08:35:46;16.33;;;10.43;;
43248;SDS011;29216;51.248;6.808;2023-01-19T08:38:14;17.42;;;8.98;;
43248;SDS011;29216;51.248;6.808;2023-01-19T08:40:41;20.45;;;10.00;;
43248;SDS011;29216;51.248;6.808;2023-01-19T08:43:08;16.15;;;10.88;;
43248;SDS011;29216;51.248;6.808;2023-01-19T08:45:37;16.80;;;10.75;;
43248;SDS011;29216;51.248;6.808;2023-01-19T08:48:05;15.88;;;10.13;;
43248;SDS011;29216;51.248;6.808;2023-01-19T08:50:31;16.80;;;9.98;;
43248;SDS011;29216;51.248;6.808;2023-01-19T08:52:58;16.00;;;10.63;;
43248;SDS011;29216;51.248;6.808;2023-01-19T08:55:25;16.17;;;9.82;;
43248;SDS011;29216;51.248;6.808;2023-01-19T08:57:51;14.45;;;10.05;;
43248;SDS011;29216;51.248;6.808;2023-01-19T09:00:19;15.15;;;10.05;;
43248;SDS011;29216;51.248;6.808;2023-01-19T09:02:45;15.63;;;10.05;;
43248;SDS011;29216;51.248;6.808;2023-01-19T09:05:11;18.80;;;10.38;;
43248;SDS011;29216;51.248;6.808;2023-01-19T09:07:37;15.43;;;9.65;;
43248;SDS011;29216;51.248;6.808;2023-01-19T09:10:03;16.50;;;10.43;;
43248;SDS011;29216;51.248;6.808;2023-01-19T09:12:29;14.57;;;10.15;;
43248;SDS011;29216;51.248;6.808;2023-01-19T09:14:55;13.10;;;9.10;;
43248;SDS011;29216;51.248;6.808;2023-01-19T09:17:21;15.30;;;10.30;;
43248;SDS011;29216;51.248;6.808;2023-01-19T09:19:47;16.85;;;9.88;;
43248;SDS011;29216;51.248;6.808;2023-01-19T09:22:13;19.65;;;10.77;;
43248;SDS011;29216;51.248;6.808;2023-01-19T09:24:39;19.95;;;10.98;;
43248;SDS011;29216;51.248;6.808;2023-01-19T09:27:05;19.95;;;12.27;;
43248;SDS011;29216;51.248;6.808;2023-01-19T09:29:30;19.33;;;11.95;;
43248;SDS011;29216;51.248;6.808;2023-01-19T09:31:56;18.15;;;10.82;;
43248;SDS011;29216;51.248;6.808;2023-01-19T09:34:22;23.10;;;11.60;;
43248;SDS011;29216;51.248;6.808;2023-01-19T09:36:49;19.20;;;11.52;;
43248;SDS011;29216;51.248;6.808;2023-01-19T09:39:18;20.33;;;12.18;;
43248;SDS011;29216;51.248;6.808;2023-01-19T09:41:54;21.55;;;11.95;;
43248;SDS011;29216;51.248;6.808;2023-01-19T09:44:27;19.95;;;11.27;;
43248;SDS011;29216;51.248;6.808;2023-01-19T09:46:55;18.77;;;10.88;;
43248;SDS011;29216;51.248;6.808;2023-01-19T09:49:31;25.88;;;13.18;;
43248;SDS011;29216;51.248;6.808;2023-01-19T09:52:00;24.50;;;13.98;;
43248;SDS011;29216;51.248;6.808;2023-01-19T09:54:38;21.00;;;12.13;;
43248;SDS011;29216;51.248;6.808;2023-01-19T09:57:17;18.90;;;11.80;;
43248;SDS011;29216;51.248;6.808;2023-01-19T09:59:44;26.65;;;12.48;;
43248;SDS011;29216;51.248;6.808;2023-01-19T10:10:33;26.75;;;12.70;;
43248;SDS011;29216;51.248;6.808;2023-01-19T10:28:42;25.13;;;14.32;;
43248;SDS011;29216;51.248;6.808;2023-01-19T10:31:11;31.08;;;15.02;;
43248;SDS011;29216;51.248;6.808;2023-01-19T10:33:38;27.63;;;14.55;;
43248;SDS011;29216;51.248;6.808;2023-01-19T10:36:04;26.60;;;14.75;;
43248;SDS011;29216;51.248;6.808;2023-01-19T10:38:39;26.08;;;14.77;;
43248;SDS011;29216;51.248;6.808;2023-01-19T10:41:16;22.73;;;13.23;;
43248;SDS011;29216;51.248;6.808;2023-01-19T10:44:08;30.77;;;15.07;;
43248;SDS011;29216;51.248;6.808;2023-01-19T10:46:41;30.55;;;13.90;;
43248;SDS011;29216;51.248;6.808;2023-01-19T10:49:29;31.83;;;15.10;;
43248;SDS011;29216;51.248;6.808;2023-01-19T10:51:55;25.52;;;13.38;;
43248;SDS011;29216;51.248;6.808;2023-01-19T10:54:23;33.50;;;15.35;;
43248;SDS011;29216;51.248;6.808;2023-01-19T10:56:52;26.95;;;13.93;;
43248;SDS011;29216;51.248;6.808;2023-01-19T10:59:31;24.17;;;13.23;;
43248;SDS011;29216;51.248;6.808;2023-01-19T11:04:53;28.38;;;14.23;;
43248;SDS011;29216;51.248;6.808;2023-01-19T11:15:29;28.77;;;12.60;;
43248;SDS011;29216;51.248;6.808;2023-01-19T11:17:57;19.98;;;11.75;;
43248;SDS011;29216;51.248;6.808;2023-01-19T11:20:28;23.05;;;11.90;;
43248;SDS011;29216;51.248;6.808;2023-01-19T11:23:15;27.48;;;12.95;;
43248;SDS011;29216;51.248;6.808;2023-01-19T11:25:46;25.45;;;12.48;;
43248;SDS011;29216;51.248;6.808;2023-01-19T11:28:21;21.63;;;12.65;;
43248;SDS011;29216;51.248;6.808;2023-01-19T11:31:16;25.67;;;12.57;;
43248;SDS011;29216;51.248;6.808;2023-01-19T11:33:52;26.02;;;13.48;;
43248;SDS011;29216;51.248;6.808;2023-01-19T11:36:30;21.10;;;13.00;;
43248;SDS011;29216;51.248;6.808;2023-01-19T11:39:45;30.92;;;14.48;;
43248;SDS011;29216;51.248;6.808;2023-01-19T11:41:51;26.45;;;13.43;;
43248;SDS011;29216;51.248;6.808;2023-01-19T11:44:22;27.48;;;13.57;;
43248;SDS011;29216;51.248;6.808;2023-01-19T11:46:55;32.15;;;13.23;;
43248;SDS011;29216;51.248;6.808;2023-01-19T11:52:42;27.67;;;13.35;;
43248;SDS011;29216;51.248;6.808;2023-01-19T11:55:15;23.25;;;13.38;;
43248;SDS011;29216;51.248;6.808;2023-01-19T11:57:45;29.13;;;13.52;;
43248;SDS011;29216;51.248;6.808;2023-01-19T12:03:07;26.85;;;12.05;;
43248;SDS011;29216;51.248;6.808;2023-01-19T12:08:26;25.40;;;11.60;;
43248;SDS011;29216;51.248;6.808;2023-01-19T12:10:58;28.23;;;12.23;;
43248;SDS011;29216;51.248;6.808;2023-01-19T12:13:26;24.88;;;12.32;;
43248;SDS011;29216;51.248;6.808;2023-01-19T12:16:03;28.58;;;13.80;;
43248;SDS011;29216;51.248;6.808;2023-01-19T12:18:34;23.88;;;11.18;;
43248;SDS011;29216;51.248;6.808;2023-01-19T12:21:03;27.17;;;12.77;;
43248;SDS011;29216;51.248;6.808;2023-01-19T12:26:09;25.40;;;12.20;;
43248;SDS011;29216;51.248;6.808;2023-01-19T12:28:41;24.60;;;13.55;;
43248;SDS011;29216;51.248;6.808;2023-01-19T12:31:14;23.40;;;11.60;;
43248;SDS011;29216;51.248;6.808;2023-01-19T12:33:42;21.10;;;12.38;;
43248;SDS011;29216;51.248;6.808;2023-01-19T12:36:33;20.67;;;12.00;;
43248;SDS011;29216;51.248;6.808;2023-01-19T12:41:35;19.52;;;10.60;;
43248;SDS011;29216;51.248;6.808;2023-01-19T12:49:45;22.60;;;10.82;;
43248;SDS011;29216;51.248;6.808;2023-01-19T12:54:50;21.15;;;9.43;;
43248;SDS011;29216;51.248;6.808;2023-01-19T12:57:40;21.15;;;11.02;;
43248;SDS011;29216;51.248;6.808;2023-01-19T13:02:59;19.52;;;10.32;;
43248;SDS011;29216;51.248;6.808;2023-01-19T13:05:49;23.38;;;10.68;;
43248;SDS011;29216;51.248;6.808;2023-01-19T13:08:20;17.13;;;10.80;;
43248;SDS011;29216;51.248;6.808;2023-01-19T13:15:51;26.30;;;12.45;;
43248;SDS011;29216;51.248;6.808;2023-01-19T13:23:26;20.40;;;10.90;;
43248;SDS011;29216;51.248;6.808;2023-01-19T13:26:03;21.70;;;11.00;;
43248;SDS011;29216;51.248;6.808;2023-01-19T13:28:52;19.90;;;10.93;;
43248;SDS011;29216;51.248;6.808;2023-01-19T13:31:20;25.10;;;11.20;;
43248;SDS011;29216;51.248;6.808;2023-01-19T13:38:52;23.33;;;12.38;;
43248;SDS011;29216;51.248;6.808;2023-01-19T13:41:20;20.92;;;11.43;;
43248;SDS011;29216;51.248;6.808;2023-01-19T13:43:51;22.13;;;12.10;;
43248;SDS011;29216;51.248;6.808;2023-01-19T13:46:23;23.75;;;12.93;;
43248;SDS011;29216;51.248;6.808;2023-01-19T13:48:53;21.45;;;12.30;;
43248;SDS011;29216;51.248;6.808;2023-01-19T13:51:22;20.40;;;12.18;;
43248;SDS011;29216;51.248;6.808;2023-01-19T13:53:57;16.92;;;10.77;;
43248;SDS011;29216;51.248;6.808;2023-01-19T13:56:26;24.00;;;11.88;;
43248;SDS011;29216;51.248;6.808;2023-01-19T13:58:57;24.90;;;11.88;;
43248;SDS011;29216;51.248;6.808;2023-01-19T14:01:35;24.80;;;12.85;;
43248;SDS011;29216;51.248;6.808;2023-01-19T14:04:02;23.27;;;13.15;;
43248;SDS011;29216;51.248;6.808;2023-01-19T14:06:35;22.42;;;12.63;;
43248;SDS011;29216;51.248;6.808;2023-01-19T14:09:07;25.48;;;12.13;;
43248;SDS011;29216;51.248;6.808;2023-01-19T14:11:40;26.20;;;13.40;;
43248;SDS011;29216;51.248;6.808;2023-01-19T14:14:20;24.25;;;12.27;;
43248;SDS011;29216;51.248;6.808;2023-01-19T14:16:47;26.70;;;12.98;;
43248;SDS011;29216;51.248;6.808;2023-01-19T14:19:12;21.98;;;13.27;;
43248;SDS011;29216;51.248;6.808;2023-01-19T14:21:39;21.17;;;11.65;;
43248;SDS011;29216;51.248;6.808;2023-01-19T14:24:13;23.70;;;14.07;;
43248;SDS011;29216;51.248;6.808;2023-01-19T14:26:48;25.38;;;13.73;;
43248;SDS011;29216;51.248;6.808;2023-01-19T14:36:55;22.27;;;12.98;;
43248;SDS011;29216;51.248;6.808;2023-01-19T14:39:22;22.00;;;12.32;;
43248;SDS011;29216;51.248;6.808;2023-01-19T14:41:50;24.60;;;12.52;;
43248;SDS011;29216;51.248;6.808;2023-01-19T14:46:57;18.38;;;12.38;;
43248;SDS011;29216;51.248;6.808;2023-01-19T14:49:28;19.73;;;11.40;;
43248;SDS011;29216;51.248;6.808;2023-01-19T14:51:54;26.23;;;11.77;;
43248;SDS011;29216;51.248;6.808;2023-01-19T14:54:23;22.67;;;12.75;;
43248;SDS011;29216;51.248;6.808;2023-01-19T14:56:59;21.83;;;12.15;;
43248;SDS011;29216;51.248;6.808;2023-01-19T14:59:25;22.08;;;12.50;;
43248;SDS011;29216;51.248;6.808;2023-01-19T15:01:51;19.50;;;11.73;;
43248;SDS011;29216;51.248;6.808;2023-01-19T15:04:17;23.42;;;13.00;;
43248;SDS011;29216;51.248;6.808;2023-01-19T15:06:42;20.80;;;11.90;;
43248;SDS011;29216;51.248;6.808;2023-01-19T15:09:13;24.13;;;11.77;;
43248;SDS011;29216;51.248;6.808;2023-01-19T15:11:39;18.02;;;11.07;;
43248;SDS011;29216;51.248;6.808;2023-01-19T15:14:07;22.77;;;11.18;;
43248;SDS011;29216;51.248;6.808;2023-01-19T15:16:38;22.35;;;10.93;;
43248;SDS011;29216;51.248;6.808;2023-01-19T15:19:04;21.65;;;11.15;;
43248;SDS011;29216;51.248;6.808;2023-01-19T15:21:30;19.73;;;11.20;;
43248;SDS011;29216;51.248;6.808;2023-01-19T15:23:56;18.88;;;11.52;;
43248;SDS011;29216;51.248;6.808;2023-01-19T15:26:23;20.95;;;11.45;;
43248;SDS011;29216;51.248;6.808;2023-01-19T15:28:50;20.95;;;10.80;;
43248;SDS011;29216;51.248;6.808;2023-01-19T15:31:22;17.95;;;10.30;;
43248;SDS011;29216;51.248;6.808;2023-01-19T15:33:49;17.52;;;10.70;;
43248;SDS011;29216;51.248;6.808;2023-01-19T15:36:17;19.70;;;10.82;;
43248;SDS011;29216;51.248;6.808;2023-01-19T15:38:44;20.42;;;11.77;;
43248;SDS011;29216;51.248;6.808;2023-01-19T15:41:14;18.63;;;11.38;;
43248;SDS011;29216;51.248;6.808;2023-01-19T15:43:43;18.75;;;10.80;;
43248;SDS011;29216;51.248;6.808;2023-01-19T15:46:09;19.92;;;11.57;;
43248;SDS011;29216;51.248;6.808;2023-01-19T15:48:37;18.42;;;12.10;;
43248;SDS011;29216;51.248;6.808;2023-01-19T15:51:03;23.20;;;12.77;;
43248;SDS011;29216;51.248;6.808;2023-01-19T15:53:29;23.08;;;12.10;;
43248;SDS011;29216;51.248;6.808;2023-01-19T15:55:55;26.27;;;13.18;;
43248;SDS011;29216;51.248;6.808;2023-01-19T15:58:21;20.27;;;11.65;;
43248;SDS011;29216;51.248;6.808;2023-01-19T16:00:54;20.17;;;11.98;;
43248;SDS011;29216;51.248;6.808;2023-01-19T16:03:21;20.27;;;12.23;;
43248;SDS011;29216;51.248;6.808;2023-01-19T16:05:47;20.67;;;11.82;;
43248;SDS011;29216;51.248;6.808;2023-01-19T16:08:12;20.98;;;11.23;;
43248;SDS011;29216;51.248;6.808;2023-01-19T16:10:39;16.13;;;10.57;;
43248;SDS011;29216;51.248;6.808;2023-01-19T16:13:05;23.25;;;11.50;;
43248;SDS011;29216;51.248;6.808;2023-01-19T16:15:33;21.48;;;11.85;;
43248;SDS011;29216;51.248;6.808;2023-01-19T16:18:00;21.40;;;11.52;;
43248;SDS011;29216;51.248;6.808;2023-01-19T16:20:26;20.02;;;11.98;;
43248;SDS011;29216;51.248;6.808;2023-01-19T16:22:51;22.42;;;11.77;;
43248;SDS011;29216;51.248;6.808;2023-01-19T16:25:17;21.10;;;11.82;;
43248;SDS011;29216;51.248;6.808;2023-01-19T16:27:44;22.80;;;11.70;;